Mendoza, Mendoza International Airport (SAME)

NameMendoza International Airport
CityMendoza
CountryArgentina
ICAOSAME
IATAMDZ
Altitude704 m
CoordinatesGoogle Map
Live Air TrafficLiveATC.net
METARSAME 251700Z 14013KT CAVOK 21/09 Q1017
2020-04-25 17:00:00 Wind: Southeast (140°) 6.69 m/s - Visibility: > 10000 m - Weather: CAVOK - Temperature: 21 °C - Dew point: 9 °C - Humidity: 46.3% - Pressure: 1017 hPa
Statistics

The table below shows the detailed information of all flights to/from Mendoza, Mendoza International Airport (SAME).